Time;durP1;ratioP1;P1;durP2;ratioP2;P2;SDS_P1;SDS_P2;PMS_P1;PMS_P2;Temp;Humidity;BMP_temperature;BMP_pressure;BME280_temperature;BME280_humidity;BME280_pressure;Samples;Min_cycle;Max_cycle;Signal;HPM_P1;HPM_P2
2022/07/10 00:01:02;;;;;;;3.63;1.42;;;;;;;25.74;35.31;102906.88;5088695;28;20157;-70
2022/07/10 00:03:28;;;;;;;3.72;1.08;;;;;;;25.13;36.05;102912.00;5093008;28;20452;-70
2022/07/10 00:05:53;;;;;;;4.82;1.35;;;;;;;24.76;36.25;102902.72;5090819;28;20098;-70
2022/07/10 00:08:19;;;;;;;3.75;1.25;;;;;;;25.13;36.20;102912.00;5084153;28;20024;-69
2022/07/10 00:10:44;;;;;;;7.60;1.48;;;;;;;25.69;35.23;102900.88;5088622;28;20027;-70
2022/07/10 00:13:09;;;;;;;3.08;1.23;;;;;;;25.55;35.69;102903.22;5079832;28;20060;-70
2022/07/10 00:15:35;;;;;;;3.08;1.42;;;;;;;25.18;36.09;102902.91;5084633;28;20012;-70
2022/07/10 00:18:00;;;;;;;3.13;1.20;;;;;;;25.23;35.32;102903.56;5081988;28;20024;-70
2022/07/10 00:20:26;;;;;;;5.95;1.20;;;;;;;25.12;36.28;102900.44;5072900;28;20473;-70
2022/07/10 00:22:51;;;;;;;4.95;1.20;;;;;;;24.89;36.20;102891.53;5080419;28;20066;-70
2022/07/10 00:25:17;;;;;;;2.92;1.15;;;;;;;24.99;35.76;102891.16;5083307;28;20539;-70
2022/07/10 00:27:42;;;;;;;4.07;1.50;;;;;;;25.22;35.86;102891.13;5074144;28;20017;-69
2022/07/10 00:30:09;;;;;;;5.35;1.50;;;;;;;24.38;37.54;102893.34;5078268;28;20118;-70
2022/07/10 00:32:36;;;;;;;5.75;2.33;;;;;;;24.51;37.81;102888.44;5090099;28;20407;-70
2022/07/10 00:35:02;;;;;;;6.43;1.60;;;;;;;24.59;37.17;102889.97;5076775;28;20055;-72
2022/07/10 00:37:27;;;;;;;2.35;1.20;;;;;;;24.68;37.15;102895.00;5085652;28;20448;-72
2022/07/10 00:39:53;;;;;;;4.45;1.25;;;;;;;24.85;36.43;102884.56;5077166;28;20016;-72
2022/07/10 00:42:18;;;;;;;2.50;1.15;;;;;;;24.62;36.53;102882.75;5068396;28;20034;-70
2022/07/10 00:44:44;;;;;;;5.53;2.25;;;;;;;24.26;38.06;102888.44;5047433;28;20033;-70
2022/07/10 00:47:11;;;;;;;4.43;1.40;;;;;;;24.94;36.50;102877.09;5047885;28;20404;-70
2022/07/10 00:49:38;;;;;;;5.03;1.50;;;;;;;24.15;37.66;102880.84;5044510;28;20017;-70
2022/07/10 00:52:07;;;;;;;3.35;1.27;;;;;;;24.06;37.78;102873.13;5035093;28;20025;-70
2022/07/10 00:54:34;;;;;;;4.35;1.13;;;;;;;24.61;36.98;102866.72;5038396;28;20436;-70
2022/07/10 00:57:00;;;;;;;2.47;1.25;;;;;;;24.70;36.43;102879.75;5059159;28;20097;-70
2022/07/10 00:59:27;;;;;;;3.40;1.10;;;;;;;23.83;38.07;102874.75;5041399;28;20459;-70
2022/07/10 01:01:53;;;;;;;4.97;1.25;;;;;;;24.19;37.82;102879.81;5043118;28;20090;-70
2022/07/10 01:04:19;;;;;;;3.50;1.13;;;;;;;23.86;38.02;102877.34;5035522;28;20021;-70
2022/07/10 01:06:44;;;;;;;5.05;1.05;;;;;;;23.97;38.14;102876.13;5044408;28;20029;-70
2022/07/10 01:09:10;;;;;;;5.60;1.65;;;;;;;24.24;37.16;102878.78;5059562;28;20491;-70
2022/07/10 01:11:37;;;;;;;4.82;1.08;;;;;;;23.13;39.16;102878.78;5070368;28;20036;-69
2022/07/10 01:14:02;;;;;;;4.63;1.20;;;;;;;23.38;38.49;102870.00;5072777;28;20083;-70
2022/07/10 01:16:29;;;;;;;8.55;1.13;;;;;;;23.20;39.31;102875.03;5044061;28;20488;-70
2022/07/10 01:18:55;;;;;;;2.88;1.10;;;;;;;23.78;37.79;102871.41;5034561;28;20058;-70
2022/07/10 01:21:32;;;;;;;4.03;1.13;;;;;;;24.25;37.26;102876.03;5044165;28;20373;-70
2022/07/10 01:23:59;;;;;;;8.00;1.20;;;;;;;23.91;37.89;102871.00;5037696;28;20063;-72
2022/07/10 01:26:25;;;;;;;7.75;1.35;;;;;;;24.22;37.59;102861.00;5035558;28;20035;-70
2022/07/10 01:28:53;;;;;;;3.53;1.27;;;;;;;24.54;37.30;102861.59;5051895;28;20029;-70
2022/07/10 01:31:28;;;;;;;4.93;1.10;;;;;;;24.55;36.95;102858.00;5036180;28;20059;-70
2022/07/10 01:33:55;;;;;;;5.32;1.23;;;;;;;24.18;37.83;102864.69;5038793;28;20029;-70
2022/07/10 01:36:24;;;;;;;3.35;1.40;;;;;;;24.24;38.01;102860.94;5044779;28;20477;-70
2022/07/10 01:38:53;;;;;;;4.30;0.98;;;;;;;24.68;36.86;102858.44;5043575;28;20036;-70
2022/07/10 01:41:18;;;;;;;6.05;1.13;;;;;;;24.72;36.17;102853.84;5034299;28;20033;-70
2022/07/10 01:43:44;;;;;;;4.47;1.10;;;;;;;24.69;36.97;102848.63;5049179;28;20164;-69
2022/07/10 01:46:11;;;;;;;7.85;1.23;;;;;;;23.99;38.61;102844.91;5045541;28;20055;-69
2022/07/10 01:48:37;;;;;;;5.95;1.58;;;;;;;24.29;37.51;102850.06;5041989;28;20028;-70
2022/07/10 01:51:04;;;;;;;6.13;1.13;;;;;;;24.60;37.64;102840.91;5042237;28;20029;-70
2022/07/10 01:53:29;;;;;;;2.58;1.23;;;;;;;25.11;36.12;102834.50;5035611;28;20032;-69
2022/07/10 01:55:55;;;;;;;2.28;1.05;;;;;;;24.62;37.47;102844.44;5050731;28;20036;-69
2022/07/10 01:58:20;;;;;;;3.17;1.10;;;;;;;24.92;36.37;102849.53;5049504;28;20029;-70
2022/07/10 02:00:46;;;;;;;4.68;1.30;;;;;;;24.53;37.14;102841.13;5034139;28;20025;-70
2022/07/10 02:05:55;;;;;;;3.67;1.02;;;;;;;23.95;37.67;102851.28;5052722;28;20521;-70
2022/07/10 02:08:21;;;;;;;3.20;1.20;;;;;;;24.85;36.55;102836.41;5035521;28;20028;-70
2022/07/10 02:10:46;;;;;;;4.53;1.77;;;;;;;24.02;38.28;102845.66;5042686;28;20134;-70
2022/07/10 02:13:14;;;;;;;5.78;1.25;;;;;;;24.36;37.87;102846.25;5051605;28;20465;-70
2022/07/10 02:15:40;;;;;;;6.05;1.10;;;;;;;24.64;37.24;102853.28;5053597;28;20421;-70
2022/07/10 02:18:06;;;;;;;3.55;1.10;;;;;;;24.58;37.48;102850.78;5050732;28;20392;-69
2022/07/10 02:20:33;;;;;;;2.20;1.00;;;;;;;24.98;36.57;102849.31;5065338;28;20056;-70
2022/07/10 02:22:58;;;;;;;3.35;1.38;;;;;;;24.44;37.76;102849.53;5045435;28;20120;-70
2022/07/10 02:25:24;;;;;;;3.58;1.05;;;;;;;24.54;37.40;102848.22;5048488;28;20209;-70
2022/07/10 02:27:49;;;;;;;1.83;1.10;;;;;;;24.66;37.52;102846.06;5035108;28;20071;-70
2022/07/10 02:30:14;;;;;;;2.83;1.13;;;;;;;25.10;37.00;102840.78;5042268;28;20033;-69
2022/07/10 02:32:40;;;;;;;2.42;1.67;;;;;;;25.16;36.81;102832.50;5053805;28;20123;-70
2022/07/10 02:35:05;;;;;;;4.88;1.85;;;;;;;25.12;36.71;102836.25;5052410;28;20476;-70
2022/07/10 02:37:31;;;;;;;3.50;1.05;;;;;;;25.15;37.14;102819.19;5052617;28;20560;-70
2022/07/10 02:39:56;;;;;;;2.78;1.15;;;;;;;25.65;35.51;102816.25;5044805;28;20042;-70
2022/07/10 02:42:22;;;;;;;1.77;1.00;;;;;;;25.94;34.84;102814.13;5034381;28;20035;-69
2022/07/10 02:44:47;;;;;;;3.17;1.15;;;;;;;25.40;36.06;102830.69;5068390;28;20024;-70
2022/07/10 02:47:12;;;;;;;5.50;1.25;;;;;;;25.62;35.75;102832.44;5053109;28;20033;-70
2022/07/10 02:49:38;;;;;;;2.22;1.33;;;;;;;25.45;36.03;102826.94;5051928;28;20020;-69
2022/07/10 02:52:04;;;;;;;2.28;1.00;;;;;;;24.72;37.47;102835.13;5035819;28;20036;-69
2022/07/10 02:54:29;;;;;;;7.05;2.45;;;;;;;24.54;37.47;102829.53;5037271;28;20024;-70
2022/07/10 02:56:54;;;;;;;3.97;1.20;;;;;;;25.35;36.52;102826.44;5069542;28;20028;-70
2022/07/10 02:59:20;;;;;;;6.03;1.30;;;;;;;25.05;36.71;102834.75;5042473;28;20028;-70
2022/07/10 03:01:45;;;;;;;11.00;1.92;;;;;;;24.44;37.89;102828.16;5064505;28;20032;-70
2022/07/10 03:04:10;;;;;;;2.63;1.13;;;;;;;24.50;38.12;102825.22;5053528;28;20036;-70
2022/07/10 03:06:36;;;;;;;4.78;1.20;;;;;;;24.76;37.44;102819.81;5042523;28;20021;-70
2022/07/10 03:09:02;;;;;;;7.90;1.25;;;;;;;25.43;36.42;102816.28;5052171;28;20028;-70
2022/07/10 03:11:27;;;;;;;5.82;1.17;;;;;;;25.12;36.78;102822.00;5039266;28;20314;-70
2022/07/10 03:13:52;;;;;;;7.45;1.10;;;;;;;24.90;37.23;102826.38;5053138;28;20027;-70
2022/07/10 03:16:18;;;;;;;3.67;1.73;;;;;;;24.96;37.04;102813.72;5037433;28;20087;-70
2022/07/10 03:18:43;;;;;;;3.47;1.10;;;;;;;25.16;37.00;102821.81;5035037;28;20031;-70
2022/07/10 03:21:10;;;;;;;2.75;1.10;;;;;;;25.48;36.47;102811.59;5047362;28;20032;-70
2022/07/10 03:23:36;;;;;;;3.92;1.30;;;;;;;24.72;37.46;102805.72;5072780;28;20037;-70
2022/07/10 03:26:01;;;;;;;3.22;1.10;;;;;;;25.44;36.58;102804.63;5074910;28;20442;-70
2022/07/10 03:28:27;;;;;;;5.32;1.50;;;;;;;25.05;37.02;102810.69;5054915;28;20446;-70
2022/07/10 03:30:52;;;;;;;5.53;1.00;;;;;;;25.61;36.46;102811.97;5042144;28;20033;-70
2022/07/10 03:33:17;;;;;;;4.38;0.90;;;;;;;25.44;37.03;102806.44;5042896;28;20056;-70
2022/07/10 03:35:43;;;;;;;5.38;1.30;;;;;;;25.39;36.48;102801.31;5046068;28;20071;-70
2022/07/10 03:38:08;;;;;;;2.85;1.10;;;;;;;25.55;36.42;102810.44;5039402;28;20029;-70
2022/07/10 03:40:34;;;;;;;4.95;1.05;;;;;;;25.56;36.74;102812.13;5054239;28;20040;-71
2022/07/10 03:42:59;;;;;;;5.07;0.98;;;;;;;26.01;35.80;102804.00;5066565;28;20514;-70
2022/07/10 03:45:24;;;;;;;4.93;1.20;;;;;;;25.49;36.65;102808.00;5092523;28;20035;-71
2022/07/10 03:47:50;;;;;;;3.42;0.95;;;;;;;25.60;36.77;102809.34;5075003;28;20041;-70
2022/07/10 03:50:15;;;;;;;4.55;1.55;;;;;;;25.22;37.62;102805.53;5072266;28;20033;-71
2022/07/10 03:52:41;;;;;;;3.60;1.05;;;;;;;25.49;36.76;102801.78;5081940;28;20029;-70
2022/07/10 03:55:06;;;;;;;2.47;0.90;;;;;;;25.43;36.86;102802.03;5083756;28;20035;-71
2022/07/10 04:00:16;;;;;;;2.67;0.80;;;;;;;24.51;38.61;102807.38;5088189;28;20104;-70
2022/07/10 04:02:41;;;;;;;4.40;0.80;;;;;;;25.46;37.17;102807.25;5077112;28;20040;-71
2022/07/10 04:05:08;;;;;;;5.30;0.90;;;;;;;25.12;37.84;102801.47;5092674;28;20032;-71
2022/07/10 04:07:34;;;;;;;3.35;1.13;;;;;;;24.69;38.99;102800.50;5085779;28;20012;-71
2022/07/10 04:10:00;;;;;;;5.25;1.15;;;;;;;25.02;38.30;102789.41;5074890;28;20020;-70
2022/07/10 04:12:25;;;;;;;6.93;2.30;;;;;;;25.45;37.48;102789.47;5088943;28;20028;-71
2022/07/10 04:14:51;;;;;;;2.78;1.00;;;;;;;25.33;38.09;102782.81;5075721;28;20073;-71
2022/07/10 04:17:17;;;;;;;4.13;1.10;;;;;;;24.85;38.85;102777.59;5087696;28;20036;-71
2022/07/10 04:19:43;;;;;;;4.25;0.98;;;;;;;23.63;41.21;102778.47;5087205;28;20023;-71
2022/07/10 04:22:08;;;;;;;6.70;1.30;;;;;;;23.62;41.30;102787.41;5081569;28;20029;-71
2022/07/10 04:24:33;;;;;;;7.38;1.10;;;;;;;23.84;40.89;102796.41;5083284;28;20400;-70
2022/07/10 04:26:59;;;;;;;4.10;1.23;;;;;;;24.88;38.93;102785.47;5083935;28;20403;-71
2022/07/10 04:29:24;;;;;;;4.68;1.08;;;;;;;25.43;37.97;102794.88;5092489;28;20032;-71
2022/07/10 04:31:50;;;;;;;4.95;1.05;;;;;;;25.95;37.16;102788.19;5088419;28;20038;-71
2022/07/10 04:34:15;;;;;;;3.50;0.95;;;;;;;25.35;37.77;102794.34;5077553;28;20123;-71
2022/07/10 04:36:40;;;;;;;8.68;1.10;;;;;;;25.91;37.46;102788.34;5089841;28;20028;-71
2022/07/10 04:39:05;;;;;;;3.58;1.10;;;;;;;26.21;36.47;102792.41;5085142;28;20060;-71
2022/07/10 04:41:31;;;;;;;3.20;1.05;;;;;;;25.93;36.87;102800.78;5076882;28;20040;-71
2022/07/10 04:43:56;;;;;;;5.88;1.00;;;;;;;25.77;37.01;102806.81;5083349;28;20044;-71
2022/07/10 04:46:22;;;;;;;6.47;2.05;;;;;;;25.91;37.22;102804.41;5091709;28;20048;-71
2022/07/10 04:48:47;;;;;;;3.20;1.00;;;;;;;25.04;38.48;102806.25;5093334;28;20398;-71
2022/07/10 04:51:12;;;;;;;4.32;1.33;;;;;;;25.82;37.90;102810.16;5086149;28;20413;-71
2022/07/10 04:53:37;;;;;;;6.43;2.22;;;;;;;24.87;39.16;102813.13;5088168;28;20774;-71
2022/07/10 04:56:03;;;;;;;4.03;0.95;;;;;;;25.29;38.51;102805.25;5081570;28;20036;-71
2022/07/10 04:58:29;;;;;;;3.53;1.10;;;;;;;25.35;38.80;102805.03;5080694;28;20416;-71
2022/07/10 05:00:54;;;;;;;1.75;1.08;;;;;;;26.46;36.88;102810.94;5089596;28;20146;-71
2022/07/10 05:03:19;;;;;;;5.82;1.00;;;;;;;26.07;37.38;102809.09;5091113;28;20487;-71
2022/07/10 05:05:45;;;;;;;4.60;1.17;;;;;;;25.96;37.53;102811.38;5082725;28;20387;-71
2022/07/10 05:08:10;;;;;;;7.57;0.98;;;;;;;25.97;37.43;102813.97;5071797;28;20136;-70
2022/07/10 05:10:35;;;;;;;7.15;1.33;;;;;;;25.66;38.52;102820.66;5071427;28;20027;-70
2022/07/10 05:13:01;;;;;;;4.75;1.00;;;;;;;25.97;37.68;102815.78;5093519;28;20020;-71
2022/07/10 05:15:26;;;;;;;5.05;1.35;;;;;;;26.38;37.05;102823.81;5082664;28;20073;-70
2022/07/10 05:17:52;;;;;;;8.95;1.35;;;;;;;25.78;37.83;102821.94;5085365;28;20024;-71
2022/07/10 05:20:17;;;;;;;4.13;1.25;;;;;;;26.14;37.83;102817.75;5086904;28;20028;-70
2022/07/10 05:22:42;;;;;;;3.25;1.23;;;;;;;25.25;39.51;102820.53;5073296;28;20484;-70
2022/07/10 05:25:08;;;;;;;5.45;1.13;;;;;;;26.21;37.70;102812.06;5085893;28;20027;-71
2022/07/10 05:27:33;;;;;;;3.10;0.88;;;;;;;26.37;37.44;102814.03;5074345;28;20059;-70
2022/07/10 05:29:58;;;;;;;4.88;1.20;;;;;;;25.47;38.64;102815.22;5080805;28;20507;-70
2022/07/10 05:32:25;;;;;;;4.70;1.13;;;;;;;26.42;37.32;102814.69;5086439;28;20074;-71
2022/07/10 05:34:51;;;;;;;5.43;1.30;;;;;;;26.87;36.51;102813.50;5083859;28;20034;-71
2022/07/10 05:37:17;;;;;;;6.28;1.10;;;;;;;26.47;37.61;102806.41;5084411;28;20016;-71
2022/07/10 05:39:43;;;;;;;5.88;0.88;;;;;;;25.72;38.46;102809.69;5091716;28;20592;-70
2022/07/10 05:42:08;;;;;;;5.78;1.10;;;;;;;26.73;37.03;102808.75;5081929;28;20036;-71
2022/07/10 05:44:33;;;;;;;3.85;1.10;;;;;;;25.89;38.37;102808.94;5033585;28;20055;-71
2022/07/10 05:46:59;;;;;;;3.67;1.30;;;;;;;25.76;38.55;102809.56;5035015;28;20028;-71
2022/07/10 05:49:25;;;;;;;5.82;1.10;;;;;;;26.67;36.98;102802.81;5035218;28;20471;-71
2022/07/10 05:51:50;;;;;;;4.45;1.10;;;;;;;27.31;36.18;102797.94;5043021;28;20029;-70
2022/07/10 05:54:15;;;;;;;5.60;1.13;;;;;;;26.99;36.11;102803.09;5042952;28;20544;-71
2022/07/10 05:56:41;;;;;;;2.63;0.90;;;;;;;26.49;37.05;102802.72;5045416;28;20587;-71
2022/07/10 05:59:06;;;;;;;8.38;0.90;;;;;;;27.05;36.67;102797.41;5034879;28;20021;-71
2022/07/10 06:01:31;;;;;;;2.72;0.80;;;;;;;26.33;37.83;102791.84;5040250;28;20017;-71
2022/07/10 06:03:57;;;;;;;6.78;1.00;;;;;;;25.81;38.24;102800.38;5051738;28;20428;-71
2022/07/10 06:06:22;;;;;;;8.95;1.52;;;;;;;25.96;38.48;102795.28;5053143;28;20024;-71
2022/07/10 06:08:48;;;;;;;3.63;1.63;;;;;;;25.34;39.27;102797.94;5054414;28;20020;-70
2022/07/10 06:11:13;;;;;;;3.58;1.27;;;;;;;26.21;38.05;102795.09;5035653;28;20024;-71
2022/07/10 06:13:39;;;;;;;10.73;1.20;;;;;;;25.69;39.08;102792.88;5042943;28;20507;-71
2022/07/10 06:16:05;;;;;;;6.40;1.30;;;;;;;25.68;39.20;102791.16;5054185;28;20051;-71
2022/07/10 06:18:33;;;;;;;4.63;0.90;;;;;;;25.22;39.16;102800.16;5053724;28;20020;-70
2022/07/10 06:20:58;;;;;;;3.38;1.23;;;;;;;25.27;39.58;102796.44;5052631;28;20029;-70
2022/07/10 06:23:24;;;;;;;2.35;0.90;;;;;;;26.04;38.58;102798.53;5045702;28;20057;-71
2022/07/10 06:25:49;;;;;;;3.90;0.90;;;;;;;25.50;38.83;102793.69;5034373;28;20040;-71
2022/07/10 06:28:16;;;;;;;4.22;0.80;;;;;;;26.57;37.88;102803.25;5034162;28;20013;-70
2022/07/10 06:30:42;;;;;;;3.25;1.00;;;;;;;26.56;37.30;102804.16;5053973;28;20048;-71
2022/07/10 06:33:07;;;;;;;6.55;1.00;;;;;;;25.73;38.13;102795.38;5070208;28;20067;-70
2022/07/10 06:35:32;;;;;;;5.20;0.90;;;;;;;26.30;37.42;102799.16;5052737;28;20082;-71
2022/07/10 06:37:58;;;;;;;7.30;1.67;;;;;;;25.75;38.77;102803.34;5063318;28;20500;-71
2022/07/10 06:40:24;;;;;;;4.25;1.13;;;;;;;26.72;37.06;102795.44;5033388;28;20048;-71
2022/07/10 06:42:49;;;;;;;7.45;0.90;;;;;;;27.55;35.70;102796.72;5042549;28;20105;-71
2022/07/10 06:45:15;;;;;;;5.70;1.10;;;;;;;27.72;35.02;102797.66;5069456;28;20434;-71
2022/07/10 06:47:56;;;;;;;4.35;0.80;;;;;;;29.76;32.15;102792.53;5081736;28;20502;-71
2022/07/10 06:50:22;;;;;;;2.20;0.70;;;;;;;30.00;32.00;102800.09;5087611;28;20024;-71
2022/07/10 06:52:51;;;;;;;4.35;0.88;;;;;;;28.60;33.71;102804.59;5071851;28;20388;-71
2022/07/10 06:55:18;;;;;;;8.90;0.90;;;;;;;29.64;32.59;102803.19;5069286;28;20029;-71
2022/07/10 06:57:44;;;;;;;8.10;1.45;;;;;;;28.24;33.67;102815.56;5072957;28;20544;-71
2022/07/10 07:00:11;;;;;;;2.30;0.80;;;;;;;27.90;34.71;102812.84;5075425;28;20119;-71
2022/07/10 07:02:36;;;;;;;2.83;0.90;;;;;;;28.55;33.17;102803.09;5076210;28;20038;-71
2022/07/10 07:05:02;;;;;;;2.45;0.80;;;;;;;27.73;34.16;102810.16;5069950;28;20391;-71
2022/07/10 07:07:28;;;;;;;5.18;0.73;;;;;;;29.23;32.25;102810.91;5072140;28;20535;-71
2022/07/10 07:09:53;;;;;;;2.70;0.88;;;;;;;29.53;31.67;102807.41;5069935;28;20107;-71
2022/07/10 07:12:19;;;;;;;3.90;0.75;;;;;;;27.43;34.54;102814.31;5069250;28;20028;-71
2022/07/10 07:14:45;;;;;;;2.63;0.75;;;;;;;27.88;34.05;102816.53;5070931;28;20032;-71
2022/07/10 07:17:12;;;;;;;0.68;0.57;;;;;;;27.30;34.92;102812.31;5078829;28;20066;-70
2022/07/10 07:25:08;;;;;;;3.50;1.10;;;;;;;28.08;34.41;102815.50;5089953;28;20046;-71
2022/07/10 07:27:35;;;;;;;5.43;1.10;;;;;;;29.15;32.75;102813.19;5090523;28;20027;-71
2022/07/10 07:30:08;;;;;;;3.15;1.00;;;;;;;27.68;34.55;102814.88;5089286;28;20475;-70
2022/07/10 07:32:34;;;;;;;5.57;1.10;;;;;;;28.96;33.13;102807.13;5088850;28;20024;-71
2022/07/10 07:35:00;;;;;;;3.88;1.15;;;;;;;28.58;33.66;102803.81;5069016;28;20502;-71
2022/07/10 07:37:39;;;;;;;5.45;0.90;;;;;;;28.92;33.30;102807.31;5070322;28;20392;-70
2022/07/10 07:40:07;;;;;;;2.22;0.75;;;;;;;28.22;34.21;102802.19;5069596;28;20044;-70
2022/07/10 07:42:32;;;;;;;1.73;0.95;;;;;;;28.03;34.63;102809.53;5070876;28;20048;-70
2022/07/10 07:44:58;;;;;;;5.95;1.10;;;;;;;28.69;34.11;102810.47;5038321;28;20593;-70
2022/07/10 07:47:24;;;;;;;4.93;0.85;;;;;;;28.01;34.94;102814.09;5032972;28;20029;-71
2022/07/10 07:49:49;;;;;;;4.20;1.20;;;;;;;27.87;34.79;102818.34;5030838;28;20495;-71
2022/07/10 07:52:14;;;;;;;6.68;1.00;;;;;;;28.26;34.51;102824.38;5048118;28;20650;-71
2022/07/10 07:54:40;;;;;;;9.27;1.38;;;;;;;27.08;36.28;102819.63;5059069;28;20060;-70
2022/07/10 07:57:07;;;;;;;6.45;1.10;;;;;;;26.85;36.50;102818.03;5067243;28;20201;-71
2022/07/10 07:59:32;;;;;;;2.78;0.90;;;;;;;27.80;35.93;102822.31;5071009;28;20056;-71
2022/07/10 08:01:58;;;;;;;3.35;1.13;;;;;;;28.06;34.55;102828.16;5069328;28;20039;-71
2022/07/10 08:04:23;;;;;;;6.03;2.15;;;;;;;27.25;36.16;102825.97;5031414;28;20420;-70
2022/07/10 08:06:51;;;;;;;3.72;1.25;;;;;;;28.24;34.35;102821.78;5057695;28;20064;-73
2022/07/10 08:09:20;;;;;;;2.10;0.85;;;;;;;28.87;33.69;102805.84;5052303;28;20373;-71
2022/07/10 08:11:46;;;;;;;3.60;2.08;;;;;;;28.59;34.17;102816.31;5073926;28;20099;-70
2022/07/10 08:14:12;;;;;;;3.13;0.80;;;;;;;27.85;34.76;102827.44;5036712;28;20110;-71
2022/07/10 08:16:38;;;;;;;5.50;1.00;;;;;;;26.57;36.48;102830.06;5036675;28;20025;-71
2022/07/10 08:19:04;;;;;;;7.03;0.98;;;;;;;26.27;37.56;102826.09;5053799;28;20040;-70
2022/07/10 08:21:30;;;;;;;5.28;1.20;;;;;;;27.11;36.31;102821.28;5036221;28;20051;-70
2022/07/10 08:23:55;;;;;;;2.88;0.77;;;;;;;27.30;35.87;102801.56;5052147;28;20036;-70
2022/07/10 08:26:21;;;;;;;3.72;0.70;;;;;;;27.17;36.27;102817.41;5054678;28;20112;-70
2022/07/10 08:28:46;;;;;;;2.47;0.82;;;;;;;27.91;35.89;102813.69;5044397;28;20397;-71
2022/07/10 08:31:11;;;;;;;3.60;0.98;;;;;;;27.75;35.21;102810.94;5054491;28;20040;-70
2022/07/10 08:33:37;;;;;;;5.57;1.25;;;;;;;29.41;32.54;102802.75;5050359;28;20476;-70
2022/07/10 08:36:04;;;;;;;3.55;0.90;;;;;;;28.99;33.00;102817.72;5071690;28;20032;-71
2022/07/10 08:38:29;;;;;;;5.10;1.10;;;;;;;29.28;33.07;102814.25;5041226;28;20428;-70
2022/07/10 08:40:57;;;;;;;1.02;0.80;;;;;;;28.79;32.70;102811.66;5056302;28;20021;-70
2022/07/10 08:43:25;;;;;;;1.95;0.57;;;;;;;28.63;33.42;102817.03;5066327;28;20067;-71
2022/07/10 08:45:53;;;;;;;1.15;0.90;;;;;;;30.42;30.94;102806.44;5075581;28;20078;-71
2022/07/10 08:48:22;;;;;;;5.20;0.77;;;;;;;29.96;31.81;102809.31;5076043;28;20222;-71
2022/07/10 08:50:51;;;;;;;1.77;0.90;;;;;;;30.36;31.59;102806.81;5073039;28;20039;-71
2022/07/10 08:53:24;;;;;;;5.05;0.90;;;;;;;30.21;31.61;102803.28;5085383;28;20034;-71
2022/07/10 08:55:49;;;;;;;2.63;0.80;;;;;;;31.01;30.56;102801.78;5079237;28;20029;-70
2022/07/10 08:58:15;;;;;;;3.15;1.10;;;;;;;31.43;29.34;102797.19;5090668;28;20429;-71
2022/07/10 09:00:41;;;;;;;3.50;0.60;;;;;;;31.03;30.06;102794.50;5085895;28;20116;-71
2022/07/10 09:03:07;;;;;;;3.72;0.88;;;;;;;29.61;30.61;102796.16;5086591;28;20470;-71
2022/07/10 09:05:33;;;;;;;5.32;0.93;;;;;;;31.87;29.10;102795.09;5085188;28;20024;-71
2022/07/10 09:07:58;;;;;;;2.63;1.23;;;;;;;31.62;29.53;102797.69;5082608;28;20473;-71
2022/07/10 09:10:25;;;;;;;3.88;0.77;;;;;;;31.20;29.22;102790.66;5073535;28;20548;-71
2022/07/10 09:12:59;;;;;;;2.67;0.80;;;;;;;32.24;28.14;102793.34;5080130;28;20030;-71
2022/07/10 09:15:26;;;;;;;2.33;0.73;;;;;;;31.51;29.26;102792.13;5088568;28;20356;-71
2022/07/10 09:18:02;;;;;;;2.72;1.00;;;;;;;31.06;30.02;102794.28;5082403;28;20069;-71
2022/07/10 09:20:33;;;;;;;1.65;0.65;;;;;;;29.92;30.89;102786.22;5069915;28;20033;-71
2022/07/10 09:23:14;;;;;;;1.05;0.70;;;;;;;30.32;30.84;102782.84;5094314;28;20401;-71
2022/07/10 09:25:39;;;;;;;2.65;0.85;;;;;;;31.22;29.65;102784.19;5079696;28;20024;-71
2022/07/10 09:28:05;;;;;;;4.20;0.73;;;;;;;30.67;30.22;102772.50;5074487;28;20082;-71
2022/07/10 09:30:39;;;;;;;3.25;1.15;;;;;;;31.41;29.62;102772.13;5072912;28;20069;-72
2022/07/10 09:33:30;;;;;;;3.08;0.73;;;;;;;32.10;28.38;102769.13;5076506;28;20381;-70
2022/07/10 09:36:11;;;;;;;2.38;1.13;;;;;;;31.03;29.44;102781.00;5076784;28;20090;-71
2022/07/10 09:38:42;;;;;;;2.47;0.68;;;;;;;31.24;28.38;102778.66;5075894;28;20392;-71
2022/07/10 09:41:24;;;;;;;3.70;0.80;;;;;;;31.77;28.61;102778.66;5072207;28;20032;-71
2022/07/10 09:43:51;;;;;;;3.35;0.93;;;;;;;31.63;28.98;102783.19;5073010;28;20147;-71
2022/07/10 09:46:18;;;;;;;1.33;0.70;;;;;;;30.11;30.43;102784.09;5076295;28;20031;-72
2022/07/10 09:48:43;;;;;;;1.67;0.93;;;;;;;28.23;33.21;102787.81;5090676;28;20023;-71
2022/07/10 09:51:10;;;;;;;3.78;0.80;;;;;;;30.63;31.10;102782.63;5087538;28;20032;-72
2022/07/10 09:53:41;;;;;;;3.67;1.25;;;;;;;29.85;30.98;102774.94;5091802;28;20024;-71
2022/07/10 09:56:09;;;;;;;1.15;0.73;;;;;;;31.47;29.59;102777.09;5075494;28;20028;-71
2022/07/10 09:58:37;;;;;;;2.75;0.77;;;;;;;30.92;30.17;102771.72;5089652;28;20031;-71
2022/07/10 10:01:07;;;;;;;3.05;0.88;;;;;;;32.74;26.87;102760.00;5078025;28;20128;-71
2022/07/10 10:03:38;;;;;;;2.63;0.80;;;;;;;33.54;26.39;102762.06;5080637;28;20060;-72
2022/07/10 10:06:30;;;;;;;3.88;1.02;;;;;;;33.21;26.20;102765.50;5084209;28;20039;-71
2022/07/10 10:09:07;;;;;;;3.60;0.80;;;;;;;34.15;25.64;102756.31;5076400;28;20032;-71
2022/07/10 10:11:35;;;;;;;3.00;0.57;;;;;;;33.33;26.11;102759.16;5089889;28;20028;-71
2022/07/10 10:14:02;;;;;;;3.33;1.35;;;;;;;32.70;26.53;102761.22;5077855;28;20051;-71
2022/07/10 10:16:29;;;;;;;2.47;1.00;;;;;;;32.51;26.36;102767.97;5081293;28;20047;-72
2022/07/10 10:21:40;;;;;;;2.70;0.85;;;;;;;33.10;24.96;102763.66;5073098;28;20467;-72
2022/07/10 10:24:06;;;;;;;4.78;1.00;;;;;;;33.54;24.28;102756.63;5069472;28;20107;-71
2022/07/10 10:26:32;;;;;;;2.17;0.70;;;;;;;32.34;26.23;102768.34;5076181;28;20032;-71
2022/07/10 10:29:00;;;;;;;0.80;0.70;;;;;;;32.73;25.98;102752.91;5090533;28;20024;-71
2022/07/10 10:31:30;;;;;;;1.80;0.70;;;;;;;31.55;26.75;102753.13;5091852;28;20047;-71
2022/07/10 10:33:57;;;;;;;2.00;0.80;;;;;;;32.41;25.64;102762.41;5090749;28;20077;-71
2022/07/10 10:36:36;;;;;;;2.38;0.82;;;;;;;33.33;24.70;102750.19;5073556;28;20419;-71
2022/07/10 10:39:08;;;;;;;3.58;0.93;;;;;;;32.83;25.73;102751.22;5079545;28;20471;-71
2022/07/10 10:41:37;;;;;;;2.33;0.90;;;;;;;31.89;26.49;102761.59;5090989;28;20024;-72
2022/07/10 10:44:09;;;;;;;2.60;0.70;;;;;;;32.25;27.49;102762.63;5075154;28;20048;-72
2022/07/10 10:46:36;;;;;;;2.23;0.80;;;;;;;31.94;27.30;102764.84;5039037;28;20028;-72
2022/07/10 10:49:08;;;;;;;2.63;0.68;;;;;;;30.66;28.53;102759.13;5033190;28;20259;-71
2022/07/10 10:51:58;;;;;;;1.67;0.70;;;;;;;30.89;28.24;102755.75;5064482;28;20396;-71
2022/07/10 10:54:24;;;;;;;3.17;0.63;;;;;;;30.72;28.21;102769.50;5063178;28;20032;-71
2022/07/10 10:57:13;;;;;;;1.67;0.70;;;;;;;31.90;27.72;102759.72;5052385;28;20028;-71
2022/07/10 10:59:49;;;;;;;4.13;1.02;;;;;;;32.51;26.53;102749.03;5042494;28;20079;-71
2022/07/10 11:02:28;;;;;;;2.72;1.10;;;;;;;32.71;27.04;102752.97;5047026;28;20480;-71
2022/07/10 11:05:17;;;;;;;1.65;0.77;;;;;;;31.31;28.04;102747.56;5050794;28;20480;-71
2022/07/10 11:07:56;;;;;;;2.83;0.77;;;;;;;31.51;27.43;102751.59;5052914;28;20108;-72
2022/07/10 11:10:44;;;;;;;2.35;0.80;;;;;;;31.76;27.05;102752.59;5052869;28;20028;-72
2022/07/10 11:13:11;;;;;;;3.03;0.70;;;;;;;32.41;26.75;102748.88;5046257;28;20020;-71
2022/07/10 11:15:41;;;;;;;4.15;0.90;;;;;;;32.09;26.99;102752.03;5035154;28;20033;-71
2022/07/10 11:18:08;;;;;;;2.00;1.00;;;;;;;31.65;28.26;102752.50;5037173;28;20044;-71
2022/07/10 11:20:35;;;;;;;2.78;0.88;;;;;;;31.84;27.87;102747.53;5068012;28;20476;-71
2022/07/10 11:23:25;;;;;;;3.85;0.80;;;;;;;31.76;26.87;102744.50;5059162;28;20043;-71
2022/07/10 11:26:10;;;;;;;4.13;1.15;;;;;;;32.74;25.69;102730.25;5034923;28;20041;-71
2022/07/10 11:28:45;;;;;;;3.83;0.85;;;;;;;30.61;28.66;102740.50;5036342;28;20374;-71
2022/07/10 11:31:10;;;;;;;4.72;0.90;;;;;;;31.49;26.42;102740.03;5032414;28;20488;-70
2022/07/10 11:33:45;;;;;;;2.95;0.90;;;;;;;30.94;28.10;102737.41;5036373;28;20027;-71
2022/07/10 11:36:13;;;;;;;2.17;0.77;;;;;;;32.02;26.80;102744.47;5056331;28;20025;-71
2022/07/10 11:38:40;;;;;;;1.35;0.63;;;;;;;31.37;26.86;102738.19;5051186;28;20067;-71